createdAt,value
2017-11-06T04:44:16.587Z,3.60
2017-11-06T04:46:43.341Z,8.07
2017-11-06T04:49:10.139Z,5.83
2017-11-06T04:51:36.925Z,7.40
2017-11-06T04:54:03.705Z,6.87
2017-11-06T04:56:30.481Z,14.40
2017-11-06T04:58:57.308Z,12.33
2017-11-06T05:01:24.051Z,5.30
2017-11-06T05:03:50.826Z,7.50
2017-11-06T05:06:17.651Z,6.33
2017-11-06T05:08:44.404Z,5.10
2017-11-06T05:11:11.185Z,5.30
2017-11-06T05:13:37.985Z,7.93
2017-11-06T05:16:04.834Z,9.30
2017-11-06T05:18:31.861Z,5.90
2017-11-06T05:20:58.681Z,6.30
2017-11-06T05:23:25.463Z,8.13
2017-11-06T05:25:52.243Z,5.70
2017-11-06T05:28:19.058Z,6.13
2017-11-06T05:30:45.844Z,7.10
2017-11-06T05:33:12.626Z,8.47
2017-11-06T05:35:39.466Z,6.13
2017-11-06T05:38:06.214Z,8.30
2017-11-06T05:40:33.265Z,5.77
2017-11-06T05:43:00.099Z,5.73
2017-11-06T05:45:26.876Z,7.93
2017-11-06T05:47:53.688Z,11.57
2017-11-06T05:50:20.526Z,6.70
2017-11-06T05:52:47.353Z,7.70
2017-11-06T05:55:14.127Z,6.00
2017-11-06T05:57:40.964Z,6.70
2017-11-06T06:00:07.804Z,8.50
2017-11-06T06:02:34.613Z,11.93
2017-11-06T06:05:01.451Z,7.60
2017-11-06T06:07:28.234Z,7.90
2017-11-06T06:09:55.071Z,9.23
2017-11-06T06:12:21.899Z,6.10
2017-11-06T06:14:48.720Z,7.93
2017-11-06T06:17:15.500Z,11.73
2017-11-06T06:19:42.305Z,8.30
2017-11-06T06:22:09.106Z,8.20
2017-11-06T06:24:35.899Z,8.73
2017-11-06T06:27:02.683Z,10.50
2017-11-06T06:29:29.480Z,12.13
2017-11-06T06:31:56.274Z,14.10
2017-11-06T06:34:23.090Z,11.70
2017-11-06T06:36:49.911Z,7.93
2017-11-06T06:39:16.680Z,10.00
2017-11-06T06:41:43.541Z,12.53
2017-11-06T06:44:10.319Z,7.80
2017-11-06T06:46:37.165Z,10.20
2017-11-06T06:49:03.989Z,8.07
2017-11-06T06:51:30.791Z,11.10
2017-11-06T06:53:57.569Z,8.97
2017-11-06T06:56:24.390Z,6.57
2017-11-06T06:58:51.170Z,8.97
2017-11-06T07:01:17.945Z,11.27
2017-11-06T07:03:44.835Z,13.87
2017-11-06T07:06:11.633Z,14.43
2017-11-06T07:08:38.486Z,8.00
2017-11-06T07:11:05.345Z,9.80
2017-11-06T07:13:32.155Z,9.17
2017-11-06T07:15:59.011Z,9.93
2017-11-06T07:18:25.889Z,10.40
2017-11-06T07:20:52.774Z,6.93
2017-11-06T07:23:19.608Z,9.77
2017-11-06T07:25:46.442Z,12.60
2017-11-06T07:28:13.510Z,8.00
2017-11-06T07:30:40.316Z,9.70
2017-11-06T07:33:07.116Z,13.80
2017-11-06T07:35:33.916Z,6.53
2017-11-06T07:38:00.688Z,12.13
2017-11-06T07:40:27.516Z,7.67
2017-11-06T07:42:54.300Z,8.77
2017-11-06T07:45:21.090Z,7.60
2017-11-06T07:47:47.875Z,9.93
2017-11-06T07:50:14.651Z,8.40
2017-11-06T07:52:41.431Z,8.97
2017-11-06T07:55:08.266Z,8.10
2017-11-06T07:57:35.072Z,8.90
2017-11-06T08:00:01.838Z,6.40
2017-11-06T08:02:28.673Z,7.50
2017-11-06T08:04:55.428Z,7.90
2017-11-06T08:07:22.225Z,10.83
2017-11-06T08:09:49.024Z,8.27
2017-11-06T08:12:15.824Z,6.17
2017-11-06T08:14:42.581Z,8.50
2017-11-06T08:17:09.404Z,16.90
2017-11-06T08:19:36.147Z,7.23
2017-11-06T08:22:02.907Z,8.17
2017-11-06T08:24:29.755Z,8.57
2017-11-06T08:26:56.617Z,8.00
2017-11-06T08:29:23.442Z,10.00
2017-11-06T08:31:50.281Z,9.60
2017-11-06T08:34:17.032Z,9.20
2017-11-06T08:36:43.828Z,7.90
2017-11-06T08:39:10.617Z,9.83
2017-11-06T08:41:37.378Z,10.73
2017-11-06T08:44:04.160Z,10.63
2017-11-06T08:46:30.969Z,10.70
2017-11-06T08:48:57.743Z,9.70
2017-11-06T08:51:24.513Z,8.53
2017-11-06T08:53:51.318Z,7.27
2017-11-06T08:56:18.105Z,7.23
2017-11-06T08:58:44.911Z,9.43
2017-11-06T09:01:11.731Z,5.97
2017-11-06T09:03:38.488Z,7.90
2017-11-06T09:06:05.260Z,7.80
2017-11-06T09:08:32.071Z,5.53
2017-11-06T09:10:58.826Z,7.50
2017-11-06T09:13:25.592Z,6.03
2017-11-06T09:15:52.404Z,7.03
2017-11-06T09:18:19.178Z,13.63
2017-11-06T09:20:45.961Z,7.07
2017-11-06T09:23:12.752Z,8.17
2017-11-06T09:25:39.493Z,6.43
2017-11-06T09:28:06.274Z,6.53
2017-11-06T09:30:33.076Z,11.13
2017-11-06T09:32:59.856Z,5.70
2017-11-06T09:35:26.619Z,5.20
2017-11-06T09:37:53.547Z,7.17
2017-11-06T09:40:20.349Z,7.60
2017-11-06T09:42:47.127Z,10.40
2017-11-06T09:45:13.956Z,8.03
2017-11-06T09:47:40.726Z,9.47
2017-11-06T09:50:07.514Z,9.70
2017-11-06T09:52:34.327Z,2.90
2017-11-06T09:55:01.114Z,5.37
2017-11-06T09:57:27.893Z,2.73
2017-11-06T09:59:54.679Z,4.70
2017-11-06T10:02:21.453Z,6.73
2017-11-06T10:04:48.262Z,7.83
2017-11-06T10:07:15.142Z,5.43
2017-11-06T10:09:41.950Z,2.47
2017-11-06T10:12:08.715Z,5.77
2017-11-06T10:14:35.769Z,6.07
2017-11-06T10:17:02.559Z,5.20
2017-11-06T10:19:29.352Z,3.40
2017-11-06T10:21:56.221Z,2.83
2017-11-06T10:24:22.981Z,2.67
2017-11-06T10:26:49.808Z,2.37
2017-11-06T10:29:16.643Z,5.93
2017-11-06T10:31:43.460Z,6.40
2017-11-06T10:34:10.281Z,1.90
2017-11-06T10:36:37.078Z,5.67
2017-11-06T10:39:03.918Z,2.60
2017-11-06T10:41:30.699Z,2.20
2017-11-06T10:43:57.529Z,4.60
2017-11-06T10:46:24.331Z,2.33
2017-11-06T10:48:51.160Z,1.10
2017-11-06T10:51:17.971Z,3.53
2017-11-06T10:53:44.774Z,1.73
2017-11-06T10:56:11.621Z,10.93
2017-11-06T10:58:38.482Z,2.00
2017-11-06T11:01:05.299Z,5.03
2017-11-06T11:03:32.348Z,2.67
2017-11-06T11:05:59.317Z,1.40
2017-11-06T11:08:26.132Z,8.23
2017-11-06T11:10:52.923Z,3.60
2017-11-06T11:13:19.870Z,2.30
2017-11-06T11:15:46.659Z,2.23
2017-11-06T11:18:13.458Z,3.83
2017-11-06T11:20:41.385Z,5.43
2017-11-06T11:23:08.199Z,1.53
2017-11-06T11:25:35.075Z,10.53
2017-11-06T11:28:01.951Z,4.77
2017-11-06T11:30:28.770Z,3.43
2017-11-06T11:32:55.877Z,5.77
2017-11-06T11:35:22.696Z,2.17
2017-11-06T11:37:49.460Z,5.10
2017-11-06T11:40:16.254Z,2.53
2017-11-06T11:42:43.123Z,1.40
2017-11-06T11:45:09.896Z,1.03
2017-11-06T11:47:36.664Z,1.80
2017-11-06T11:50:03.477Z,2.40
2017-11-06T11:52:30.262Z,4.13
2017-11-06T11:54:57.051Z,3.33
2017-11-06T11:57:23.898Z,2.53
2017-11-06T11:59:50.690Z,4.53
2017-11-06T12:02:17.491Z,2.37
2017-11-06T12:04:44.308Z,1.27
2017-11-06T12:07:11.088Z,1.23
2017-11-06T12:09:37.901Z,0.90
2017-11-06T12:12:04.728Z,2.33
2017-11-06T12:14:31.513Z,1.87
2017-11-06T12:16:58.305Z,2.97
2017-11-06T12:19:25.121Z,3.50
2017-11-06T12:21:51.921Z,5.50
2017-11-06T12:24:18.765Z,1.37
2017-11-06T12:26:45.612Z,3.37
2017-11-06T12:29:12.423Z,3.80
2017-11-06T12:31:39.203Z,4.20
2017-11-06T12:34:06.033Z,3.70
2017-11-06T12:36:32.853Z,2.93
2017-11-06T12:38:59.712Z,3.13
2017-11-06T12:41:26.578Z,3.80
2017-11-06T12:43:53.411Z,8.67
2017-11-06T12:46:20.261Z,1.90
2017-11-06T12:48:47.091Z,5.77
2017-11-06T12:51:13.936Z,4.70
2017-11-06T12:53:40.782Z,0.93
2017-11-06T12:56:07.686Z,5.17
2017-11-06T12:58:34.506Z,4.40
2017-11-06T13:01:01.372Z,1.53
2017-11-06T13:03:28.216Z,8.40
2017-11-06T13:05:55.061Z,7.00
2017-11-06T13:08:21.816Z,3.17
2017-11-06T13:10:48.648Z,3.30
2017-11-06T13:13:15.465Z,2.37
2017-11-06T13:15:42.264Z,3.57
2017-11-06T13:18:09.069Z,2.13
2017-11-06T13:20:35.851Z,3.00
2017-11-06T13:23:02.661Z,2.40
2017-11-06T13:25:29.479Z,9.73
2017-11-06T13:27:56.253Z,1.60
2017-11-06T13:30:23.056Z,4.57
2017-11-06T13:32:49.859Z,3.60
2017-11-06T13:35:16.979Z,15.23
2017-11-06T13:37:43.750Z,2.80
2017-11-06T13:40:10.563Z,5.37
2017-11-06T13:42:37.379Z,2.97
2017-11-06T13:45:04.175Z,3.27
2017-11-06T13:47:31.020Z,7.07
2017-11-06T13:49:57.838Z,2.40
2017-11-06T13:52:24.616Z,9.37
2017-11-06T13:54:51.416Z,2.30
2017-11-06T13:57:18.233Z,1.07
2017-11-06T13:59:45.132Z,1.83
2017-11-06T14:02:12.009Z,7.13
2017-11-06T14:04:38.808Z,2.60
2017-11-06T14:07:05.631Z,4.47
2017-11-06T14:09:32.502Z,7.03
2017-11-06T14:11:59.342Z,1.93
2017-11-06T14:14:26.151Z,1.80
2017-11-06T14:16:52.967Z,8.23
2017-11-06T14:19:19.760Z,5.03
2017-11-06T14:21:46.531Z,9.70
2017-11-06T14:24:13.375Z,5.83
2017-11-06T14:26:40.190Z,2.30
2017-11-06T14:29:07.201Z,5.87
2017-11-06T14:31:34.000Z,8.73
2017-11-06T14:34:00.771Z,8.33
2017-11-06T14:36:27.535Z,9.93
2017-11-06T14:38:54.332Z,6.17
2017-11-06T14:41:21.119Z,6.40
2017-11-06T14:43:47.911Z,11.00
2017-11-06T14:46:14.766Z,5.10
2017-11-06T14:48:41.566Z,11.03
2017-11-06T14:51:08.348Z,10.60
2017-11-06T14:53:35.146Z,8.23
2017-11-06T14:56:01.912Z,6.57
2017-11-06T14:58:28.691Z,4.20
2017-11-06T15:00:55.556Z,6.17
2017-11-06T15:03:22.354Z,3.23
2017-11-06T15:05:49.133Z,3.67
2017-11-06T15:08:15.950Z,6.60
2017-11-06T15:10:42.730Z,9.73
2017-11-06T15:13:09.561Z,9.10
2017-11-06T15:15:36.441Z,6.47
2017-11-06T15:18:03.245Z,7.13
2017-11-06T15:20:30.082Z,7.17
2017-11-06T15:22:56.970Z,6.03
2017-11-06T15:25:23.818Z,10.40
2017-11-06T15:27:50.618Z,6.63
2017-11-06T15:30:17.436Z,10.10
2017-11-06T15:32:44.220Z,5.10
2017-11-06T15:35:11.041Z,10.57
2017-11-06T15:37:37.890Z,12.13
2017-11-06T15:40:04.690Z,4.07
2017-11-06T15:42:31.505Z,5.50
2017-11-06T15:44:58.521Z,4.80
2017-11-06T15:47:25.316Z,6.40
2017-11-06T15:49:52.073Z,7.10
2017-11-06T15:52:18.883Z,5.37
2017-11-06T15:54:45.640Z,5.77
2017-11-06T15:57:12.765Z,5.60
2017-11-06T15:59:39.587Z,10.60
2017-11-06T16:02:06.403Z,11.23
2017-11-06T16:04:33.257Z,12.00
2017-11-06T16:07:00.104Z,11.23
2017-11-06T16:09:26.949Z,16.87
2017-11-06T16:11:53.774Z,12.30
2017-11-06T16:14:20.628Z,8.17
2017-11-06T16:16:47.474Z,11.43
2017-11-06T16:19:14.296Z,13.60
2017-11-06T16:21:41.158Z,11.67
2017-11-06T16:24:07.952Z,13.33
2017-11-06T16:26:34.726Z,6.50
2017-11-06T16:29:01.531Z,12.97
2017-11-06T16:31:28.310Z,10.33
2017-11-06T16:33:55.074Z,11.20
2017-11-06T16:36:21.907Z,10.00
2017-11-06T16:38:48.712Z,9.70
2017-11-06T16:41:15.541Z,16.27
2017-11-06T16:43:42.377Z,11.73
2017-11-06T16:46:09.162Z,9.00
2017-11-06T16:48:35.969Z,15.73
2017-11-06T16:51:02.809Z,18.60
2017-11-06T16:53:29.627Z,11.43
2017-11-06T16:55:56.394Z,11.67
2017-11-06T16:58:23.230Z,15.40
2017-11-06T17:00:50.005Z,12.27
2017-11-06T17:03:16.753Z,15.80
2017-11-06T17:05:43.618Z,14.73
2017-11-06T17:08:10.434Z,17.40
2017-11-06T17:10:37.848Z,16.57
2017-11-06T17:13:05.618Z,21.30
2017-11-06T17:15:32.408Z,15.60
2017-11-06T17:17:59.199Z,15.50
2017-11-06T17:20:26.020Z,9.80
2017-11-06T17:22:52.832Z,23.00
2017-11-06T17:25:19.621Z,14.90
2017-11-06T17:27:46.433Z,9.17
2017-11-06T17:30:13.207Z,19.67
2017-11-06T17:32:39.970Z,9.63
2017-11-06T17:35:06.791Z,15.17
2017-11-06T17:37:33.548Z,14.73
2017-11-06T17:40:00.334Z,9.40
2017-11-06T17:42:27.160Z,22.07
2017-11-06T17:44:54.002Z,9.27
2017-11-06T17:47:20.802Z,10.77
2017-11-06T17:49:47.636Z,14.20
2017-11-06T17:52:14.478Z,13.53
2017-11-06T17:54:41.264Z,13.40
2017-11-06T17:57:08.090Z,21.50
2017-11-06T17:59:34.876Z,10.27
2017-11-06T18:02:01.679Z,14.90
2017-11-06T18:04:28.522Z,16.43
2017-11-06T18:06:55.303Z,12.50
2017-11-06T18:09:22.089Z,14.73
2017-11-06T18:11:48.939Z,16.87
2017-11-06T18:14:15.689Z,18.63
2017-11-06T18:16:42.490Z,12.00
2017-11-06T18:19:09.310Z,16.07
2017-11-06T18:21:36.092Z,16.60
2017-11-06T18:24:02.893Z,11.03
2017-11-06T18:26:29.717Z,14.53
2017-11-06T18:28:56.539Z,11.70
2017-11-06T18:31:23.351Z,18.23
2017-11-06T18:33:50.196Z,11.10
2017-11-06T18:36:16.983Z,11.67
2017-11-06T18:38:43.788Z,14.43
2017-11-06T18:41:10.623Z,14.70
2017-11-06T18:43:38.801Z,15.37
2017-11-06T18:46:05.596Z,17.83
2017-11-06T18:48:32.466Z,14.63
2017-11-06T18:51:00.176Z,14.13
2017-11-06T18:53:26.942Z,11.47
2017-11-06T18:55:53.872Z,16.00
2017-11-06T18:58:20.653Z,17.10
2017-11-06T19:00:48.312Z,13.30
2017-11-06T19:03:15.139Z,11.30
2017-11-06T19:05:41.950Z,14.43
2017-11-06T19:08:09.020Z,13.40
2017-11-06T19:10:35.823Z,9.10
2017-11-06T19:13:02.611Z,12.63
2017-11-06T19:15:29.410Z,14.23
2017-11-06T19:17:56.231Z,14.53
2017-11-06T19:20:22.988Z,15.27
2017-11-06T19:22:49.753Z,18.57
2017-11-06T19:25:16.578Z,26.97
2017-11-06T19:27:43.415Z,11.33
2017-11-06T19:30:10.192Z,11.03
2017-11-06T19:32:37.027Z,7.27
2017-11-06T19:35:03.815Z,8.90
2017-11-06T19:37:30.584Z,15.70
2017-11-06T19:39:57.434Z,15.80
2017-11-06T19:42:24.247Z,19.77
2017-11-06T19:44:51.026Z,12.97
2017-11-06T19:47:17.852Z,14.10
2017-11-06T19:49:44.655Z,15.40
2017-11-06T19:52:11.435Z,14.30
2017-11-06T19:54:38.272Z,14.40
2017-11-06T19:57:05.024Z,10.30
2017-11-06T19:59:31.796Z,12.10
2017-11-06T20:01:58.604Z,12.70
2017-11-06T20:04:25.385Z,13.37
2017-11-06T20:06:52.178Z,13.20
2017-11-06T20:09:19.030Z,12.73
2017-11-06T20:11:45.880Z,11.67
2017-11-06T20:14:12.681Z,12.27
2017-11-06T20:16:39.620Z,13.57
2017-11-06T20:19:06.415Z,12.60
2017-11-06T20:21:33.242Z,18.37
2017-11-06T20:24:00.070Z,15.10
2017-11-06T20:26:26.907Z,12.60
2017-11-06T20:28:53.728Z,11.70
2017-11-06T20:31:20.530Z,13.47
2017-11-06T20:33:47.346Z,13.30
2017-11-06T20:36:14.157Z,16.67
2017-11-06T20:38:40.974Z,15.10
2017-11-06T20:41:07.764Z,14.20
2017-11-06T20:43:34.531Z,15.07
2017-11-06T20:46:01.376Z,12.17
2017-11-06T20:48:28.198Z,13.97
2017-11-06T20:50:55.054Z,15.53
2017-11-06T20:53:21.974Z,13.10
2017-11-06T20:55:48.799Z,13.83
2017-11-06T20:58:15.584Z,13.10
2017-11-06T21:00:42.416Z,11.97
2017-11-06T21:03:09.271Z,17.10
2017-11-06T21:05:36.072Z,10.83
2017-11-06T21:08:02.915Z,13.87
2017-11-06T21:10:29.691Z,14.40
2017-11-06T21:12:56.852Z,12.47
2017-11-06T21:15:23.668Z,12.13
2017-11-06T21:17:50.467Z,13.07
2017-11-06T21:20:17.254Z,13.83
2017-11-06T21:22:44.071Z,10.40
2017-11-06T21:25:10.819Z,11.47
2017-11-06T21:27:37.572Z,13.33
2017-11-06T21:30:10.149Z,8.57
2017-11-06T21:32:36.941Z,10.77
2017-11-06T21:35:03.734Z,13.67
2017-11-06T21:37:30.559Z,10.20
2017-11-06T21:39:57.306Z,11.53
2017-11-06T21:42:24.091Z,15.93
2017-11-06T21:44:50.904Z,10.80
2017-11-06T21:47:17.693Z,12.37
2017-11-06T21:49:44.495Z,15.17
2017-11-06T21:52:11.319Z,12.60
2017-11-06T21:54:38.098Z,13.23
2017-11-06T21:57:04.863Z,13.33
2017-11-06T21:59:31.682Z,15.37
2017-11-06T22:01:58.452Z,9.40
2017-11-06T22:04:25.225Z,10.60
2017-11-06T22:06:52.043Z,13.00
2017-11-06T22:09:18.831Z,12.00
2017-11-06T22:11:45.646Z,11.60
2017-11-06T22:14:12.546Z,9.90
2017-11-06T22:16:39.342Z,6.63
2017-11-06T22:19:06.088Z,8.20
2017-11-06T22:21:32.891Z,10.70
2017-11-06T22:23:59.659Z,13.93
2017-11-06T22:26:26.483Z,8.77
2017-11-06T22:28:53.292Z,12.20
2017-11-06T22:31:20.082Z,13.80
2017-11-06T22:33:47.167Z,10.63
2017-11-06T22:36:13.974Z,8.23
2017-11-06T22:38:40.781Z,22.75
2017-11-06T22:41:07.554Z,15.47
2017-11-06T22:43:34.353Z,14.50
2017-11-06T22:46:01.114Z,11.12
2017-11-06T22:48:27.911Z,18.33
2017-11-06T22:50:54.721Z,21.55
2017-11-06T22:53:21.502Z,17.03
2017-11-06T22:55:48.356Z,10.27
2017-11-06T22:58:15.147Z,9.60
2017-11-06T23:00:41.955Z,9.45
2017-11-06T23:03:08.746Z,10.20
2017-11-06T23:05:35.547Z,10.00
2017-11-06T23:08:02.340Z,10.27
2017-11-06T23:10:29.144Z,9.50
